Time;durP1;ratioP1;P1;durP2;ratioP2;P2;SDS_P1;SDS_P2;PMS_P1;PMS_P2;Temp;Humidity;BMP_temperature;BMP_pressure;BME280_temperature;BME280_humidity;BME280_pressure;Samples;Min_cycle;Max_cycle;Signal;HPM_P1;HPM_P2
2023/06/02 00:01:17;;;;;;;1.13;0.80;;;;;;;16.98;61.99;99263.38;5066550;28;20309;-59
2023/06/02 00:03:48;;;;;;;0.63;0.60;;;;;;;17.54;62.02;99309.31;5055989;28;20661;-60
2023/06/02 00:06:21;;;;;;;1.13;0.80;;;;;;;17.79;62.56;99305.19;5065726;28;20850;-59
2023/06/02 00:08:52;;;;;;;2.57;1.00;;;;;;;17.69;58.59;99295.16;5054943;28;20367;-57
2023/06/02 00:11:23;;;;;;;2.40;0.77;;;;;;;17.44;59.21;99292.31;5065473;28;20381;-58
2023/06/02 00:13:53;;;;;;;0.70;0.70;;;;;;;17.61;59.96;99294.78;5054490;28;20286;-60
2023/06/02 00:16:24;;;;;;;1.00;0.80;;;;;;;17.92;59.74;99292.94;5065435;28;20339;-60
2023/06/02 00:18:56;;;;;;;1.43;0.83;;;;;;;17.91;57.58;99291.25;5034692;28;20358;-60
2023/06/02 00:21:29;;;;;;;0.90;0.80;;;;;;;17.89;56.81;99298.41;5045129;28;20287;-58
2023/06/02 00:23:59;;;;;;;1.87;0.63;;;;;;;18.06;57.53;99295.56;5044706;28;20274;-59
2023/06/02 00:26:30;;;;;;;1.23;0.80;;;;;;;18.29;58.29;99288.81;5034399;28;20362;-58
2023/06/02 00:29:01;;;;;;;1.00;0.90;;;;;;;18.51;57.54;99285.66;5042909;28;20348;-59
2023/06/02 00:31:31;;;;;;;0.90;0.80;;;;;;;18.68;58.60;99251.97;5030424;28;20310;-61
2023/06/02 00:34:02;;;;;;;1.73;0.77;;;;;;;18.68;56.33;99281.91;5036995;28;20295;-61
2023/06/02 00:36:35;;;;;;;1.37;0.67;;;;;;;18.67;56.59;99284.66;5031778;28;20292;-60
2023/06/02 00:39:05;;;;;;;1.63;0.90;;;;;;;19.07;59.08;99282.03;5044675;28;20283;-59
2023/06/02 00:41:36;;;;;;;0.97;0.80;;;;;;;19.38;57.04;99286.13;5034217;28;20283;-60
2023/06/02 00:44:06;;;;;;;0.73;0.60;;;;;;;19.03;54.36;99292.00;5044081;28;20289;-59
2023/06/02 00:46:37;;;;;;;1.93;1.00;;;;;;;19.07;54.77;99279.41;5034126;28;20358;-61
2023/06/02 00:49:08;;;;;;;2.70;0.97;;;;;;;18.87;54.13;99297.47;5044680;28;20750;-59
2023/06/02 00:51:45;;;;;;;1.63;0.70;;;;;;;18.74;53.50;99285.94;5033705;28;20295;-61
2023/06/02 00:54:16;;;;;;;1.30;0.87;;;;;;;18.71;54.70;99286.16;5049029;28;20293;-56
2023/06/02 00:56:51;;;;;;;1.00;0.60;;;;;;;18.70;53.81;99281.81;5041988;28;20291;-60
2023/06/02 00:59:23;;;;;;;0.70;0.70;;;;;;;18.45;54.65;99286.06;5062817;28;20380;-58
2023/06/02 01:01:54;;;;;;;1.53;0.80;;;;;;;18.40;55.36;99276.75;5044182;28;20289;-58
2023/06/02 01:04:25;;;;;;;1.23;0.60;;;;;;;17.96;54.61;99291.81;5063265;28;20278;-58
2023/06/02 01:07:02;;;;;;;1.87;0.87;;;;;;;17.71;55.69;99294.25;5053440;28;20278;-58
2023/06/02 01:09:33;;;;;;;0.80;0.70;;;;;;;17.83;55.03;99289.09;5053279;28;20737;-59
2023/06/02 01:12:04;;;;;;;1.77;0.50;;;;;;;18.22;54.41;99278.75;5063318;28;20271;-59
2023/06/02 01:14:35;;;;;;;0.80;0.80;;;;;;;18.53;54.66;99283.75;5053065;28;20310;-59
2023/06/02 01:17:05;;;;;;;1.53;0.70;;;;;;;18.99;56.43;99268.47;5063453;28;20274;-60
2023/06/02 01:19:38;;;;;;;2.27;0.90;;;;;;;19.45;56.83;99260.06;5039982;28;20359;-60
2023/06/02 01:22:13;;;;;;;1.77;0.80;;;;;;;20.05;56.48;99275.31;5059630;28;20293;-60
2023/06/02 01:24:47;;;;;;;1.30;0.70;;;;;;;20.33;53.04;99289.22;5048703;28;20294;-59
2023/06/02 01:27:23;;;;;;;4.37;1.10;;;;;;;20.17;52.06;99274.44;5058478;28;20290;-61
2023/06/02 01:29:55;;;;;;;0.73;0.50;;;;;;;20.14;51.36;99273.78;5048099;28;21088;-59
2023/06/02 01:32:35;;;;;;;1.47;0.77;;;;;;;20.38;50.71;99287.09;5058558;28;20290;-60
2023/06/02 01:35:17;;;;;;;0.87;0.70;;;;;;;19.92;50.03;99277.13;5048347;28;20793;-60
2023/06/02 01:37:56;;;;;;;3.90;0.73;;;;;;;20.08;51.84;99268.94;5047573;28;20287;-60
2023/06/02 01:40:30;;;;;;;2.83;0.90;;;;;;;20.14;52.99;99269.31;5058934;28;20286;-59
2023/06/02 01:43:03;;;;;;;0.63;0.60;;;;;;;20.22;51.97;99268.78;5048517;28;20391;-59
2023/06/02 01:45:35;;;;;;;1.33;0.70;;;;;;;19.69;52.09;99231.88;5047304;28;20314;-61
2023/06/02 01:48:07;;;;;;;1.90;0.67;;;;;;;19.76;52.25;99270.25;5058452;28;20335;-60
2023/06/02 01:50:38;;;;;;;0.83;0.63;;;;;;;19.76;53.18;99254.34;5048419;28;20763;-60
2023/06/02 01:53:09;;;;;;;0.83;0.60;;;;;;;19.93;54.15;99260.28;5059008;28;20693;-59
2023/06/02 01:55:41;;;;;;;1.90;0.80;;;;;;;19.91;53.03;99256.88;5047493;28;20343;-61
2023/06/02 01:58:12;;;;;;;2.33;0.70;;;;;;;19.50;51.88;99268.56;5058952;28;20344;-59
2023/06/02 02:00:42;;;;;;;2.90;0.73;;;;;;;19.42;53.15;99260.25;5047655;28;20741;-61
2023/06/02 02:03:13;;;;;;;3.77;0.80;;;;;;;19.13;53.44;99260.47;5058225;28;20277;-59
2023/06/02 02:05:44;;;;;;;1.60;0.80;;;;;;;19.32;52.67;99254.75;5047494;28;20310;-60
2023/06/02 02:08:16;;;;;;;0.93;0.60;;;;;;;19.77;54.34;99250.75;5058448;28;20367;-60
2023/06/02 02:10:48;;;;;;;1.20;0.80;;;;;;;20.03;54.15;99250.69;5048082;28;20282;-59
2023/06/02 02:13:18;;;;;;;2.50;0.90;;;;;;;20.25;53.79;99229.63;5058919;28;20339;-60
2023/06/02 02:15:49;;;;;;;0.80;0.70;;;;;;;20.01;51.02;99242.00;5050973;28;20954;-60
2023/06/02 02:18:20;;;;;;;4.87;0.90;;;;;;;19.99;53.50;99234.19;5062656;28;20326;-61
2023/06/02 02:20:51;;;;;;;4.43;0.90;;;;;;;19.90;53.68;99233.97;5051592;28;20287;-61
2023/06/02 02:23:21;;;;;;;4.10;1.00;;;;;;;20.19;54.64;99235.38;5062366;28;20397;-61
2023/06/02 02:25:53;;;;;;;6.10;1.37;;;;;;;20.51;54.14;99234.81;5051682;28;20278;-57
2023/06/02 02:28:24;;;;;;;4.47;1.23;;;;;;;20.93;53.70;99232.59;5062742;28;20428;-57
2023/06/02 02:30:54;;;;;;;1.37;0.80;;;;;;;20.75;50.52;99236.66;5051301;28;20278;-58
2023/06/02 02:33:25;;;;;;;2.60;1.10;;;;;;;20.49;50.86;99231.41;5061815;28;20278;-59
2023/06/02 02:35:56;;;;;;;2.67;0.93;;;;;;;20.80;54.51;99227.38;5042247;28;20749;-57
2023/06/02 02:38:26;;;;;;;1.70;0.80;;;;;;;20.85;51.06;99224.38;5048179;28;20288;-59
2023/06/02 02:40:58;;;;;;;3.27;0.80;;;;;;;20.64;51.81;99209.09;5042140;28;20379;-58
2023/06/02 02:43:29;;;;;;;1.37;0.80;;;;;;;20.52;50.94;99228.56;5035126;28;20803;-59
2023/06/02 02:45:59;;;;;;;3.50;1.17;;;;;;;20.04;51.01;99233.81;5041790;28;20362;-57
2023/06/02 02:48:32;;;;;;;4.83;1.20;;;;;;;20.11;53.17;99237.72;5045709;28;20713;-58
2023/06/02 02:51:02;;;;;;;5.40;1.17;;;;;;;20.07;50.72;99230.97;5061150;28;20581;-58
2023/06/02 02:53:36;;;;;;;1.87;0.97;;;;;;;19.65;51.68;99235.69;5050202;28;20290;-57
2023/06/02 02:56:09;;;;;;;1.37;0.63;;;;;;;19.33;53.57;99230.81;5060527;28;20788;-58
2023/06/02 02:58:41;;;;;;;4.97;0.70;;;;;;;19.14;54.21;99235.66;5050902;28;20826;-58
2023/06/02 03:01:15;;;;;;;1.37;1.00;;;;;;;18.71;54.15;99217.34;5062270;28;20282;-58
2023/06/02 03:03:46;;;;;;;0.90;0.60;;;;;;;18.22;55.04;99217.94;5050680;28;20837;-60
2023/06/02 03:06:18;;;;;;;0.73;0.70;;;;;;;17.95;55.60;99218.75;5061633;28;20369;-59
2023/06/02 03:08:49;;;;;;;6.13;1.20;;;;;;;17.83;56.72;99230.09;5050937;28;20311;-59
2023/06/02 03:11:22;;;;;;;1.37;0.70;;;;;;;17.71;56.52;99241.41;5061248;28;20388;-58
2023/06/02 03:13:54;;;;;;;2.00;0.90;;;;;;;17.74;56.97;99235.91;5036663;28;20376;-58
2023/06/02 03:16:28;;;;;;;1.20;0.60;;;;;;;17.82;57.12;99241.59;5059998;28;20301;-57
2023/06/02 03:19:00;;;;;;;3.70;0.90;;;;;;;18.15;56.31;99241.28;5051134;28;20282;-58
2023/06/02 03:21:31;;;;;;;0.60;0.60;;;;;;;18.21;55.05;99203.03;5050031;28;20287;-58
2023/06/02 03:24:02;;;;;;;0.73;0.60;;;;;;;18.53;53.96;99230.00;5060777;28;20325;-58
2023/06/02 03:26:34;;;;;;;2.13;0.70;;;;;;;18.49;55.28;99239.94;5050373;28;20278;-58
2023/06/02 03:29:06;;;;;;;2.83;0.93;;;;;;;18.80;56.65;99237.97;5061583;28;20308;-58
2023/06/02 03:31:37;;;;;;;10.77;1.37;;;;;;;18.86;56.89;99236.69;5050189;28;20895;-58
2023/06/02 03:34:08;;;;;;;1.87;0.67;;;;;;;18.50;55.66;99231.06;5061691;28;20767;-58
2023/06/02 03:36:39;;;;;;;3.60;1.53;;;;;;;18.14;57.05;99228.16;5049304;28;20301;-58
2023/06/02 03:39:10;;;;;;;2.33;0.80;;;;;;;17.27;56.99;99153.41;5061102;28;20286;-58
2023/06/02 03:41:42;;;;;;;4.80;1.00;;;;;;;17.00;59.05;99177.06;5050098;28;20278;-59
2023/06/02 03:44:13;;;;;;;3.13;0.80;;;;;;;17.05;59.09;99238.34;5060426;28;20293;-60
2023/06/02 03:46:44;;;;;;;2.00;0.70;;;;;;;16.85;59.31;99246.56;5050742;28;21421;-60
2023/06/02 03:49:14;;;;;;;3.80;1.00;;;;;;;16.68;60.65;99253.66;5061106;28;20377;-61
2023/06/02 03:51:46;;;;;;;3.07;0.90;;;;;;;16.71;60.69;99256.09;5050038;28;20274;-59
2023/06/02 03:54:19;;;;;;;2.73;0.90;;;;;;;16.84;59.57;99244.88;5060530;28;20367;-60
2023/06/02 03:56:52;;;;;;;2.73;0.90;;;;;;;17.21;58.54;99231.19;5050125;28;20282;-60
2023/06/02 03:59:23;;;;;;;1.43;0.73;;;;;;;17.61;57.80;99236.69;5060309;28;20694;-59
2023/06/02 04:01:53;;;;;;;1.40;0.80;;;;;;;17.69;58.16;99239.69;5038024;28;20290;-60
2023/06/02 04:04:26;;;;;;;2.63;0.80;;;;;;;17.72;57.56;99232.53;5032988;28;20283;-60
2023/06/02 04:06:58;;;;;;;2.57;0.90;;;;;;;17.65;57.38;99232.91;5019862;28;20280;-61
2023/06/02 04:09:29;;;;;;;2.70;1.00;;;;;;;17.57;56.89;99235.19;5027964;28;20436;-60
2023/06/02 04:12:01;;;;;;;3.33;0.90;;;;;;;17.50;56.84;99228.59;5031440;28;20904;-61
2023/06/02 04:14:32;;;;;;;2.67;0.87;;;;;;;17.38;59.01;99229.34;5021315;28;20317;-60
2023/06/02 04:17:03;;;;;;;2.37;0.80;;;;;;;17.39;58.91;99231.03;5030637;28;20286;-61
2023/06/02 04:19:33;;;;;;;2.30;0.87;;;;;;;17.49;58.98;99237.44;5022251;28;20292;-61
2023/06/02 04:22:05;;;;;;;1.70;0.80;;;;;;;17.42;58.39;99225.53;5040637;28;20298;-60
2023/06/02 04:24:40;;;;;;;7.17;1.03;;;;;;;17.42;58.21;99230.81;5046090;28;20286;-60
2023/06/02 04:27:12;;;;;;;3.20;0.90;;;;;;;17.51;58.06;99230.28;5059736;28;20293;-61
2023/06/02 04:29:43;;;;;;;1.93;1.03;;;;;;;17.62;58.06;99233.13;5049454;28;20279;-61
2023/06/02 04:32:14;;;;;;;4.47;1.73;;;;;;;17.89;57.71;99229.69;5059904;28;20279;-60
2023/06/02 04:34:48;;;;;;;4.17;0.80;;;;;;;18.26;56.71;99222.91;5050001;28;20377;-61
2023/06/02 04:37:20;;;;;;;1.67;1.27;;;;;;;18.64;56.19;99226.66;5060655;28;20274;-58
2023/06/02 04:39:51;;;;;;;2.23;0.90;;;;;;;19.05;55.65;99223.06;5049301;28;20282;-61
2023/06/02 04:42:25;;;;;;;2.30;1.00;;;;;;;19.39;55.16;99225.09;5059743;28;20278;-61
2023/06/02 04:45:00;;;;;;;1.67;0.90;;;;;;;19.02;52.85;99236.50;5039970;28;20736;-63
2023/06/02 04:47:31;;;;;;;1.90;0.90;;;;;;;18.80;54.60;99237.97;5039542;28;20373;-63
2023/06/02 04:50:02;;;;;;;4.03;1.23;;;;;;;18.64;55.45;99229.28;5049528;28;20278;-63
2023/06/02 04:52:33;;;;;;;1.93;1.20;;;;;;;18.98;56.86;99229.75;5040150;28;20344;-62
2023/06/02 04:55:03;;;;;;;2.83;1.07;;;;;;;18.93;53.49;99212.34;5049143;28;20283;-61
2023/06/02 04:57:36;;;;;;;4.60;0.87;;;;;;;18.77;53.43;99222.28;5037829;28;20363;-60
2023/06/02 05:00:07;;;;;;;3.87;0.90;;;;;;;18.55;54.17;99222.84;5050331;28;20278;-62
2023/06/02 05:02:38;;;;;;;0.70;0.70;;;;;;;18.37;53.54;99216.97;5039410;28;20295;-61
2023/06/02 05:05:09;;;;;;;4.47;0.90;;;;;;;18.21;55.22;99210.94;5049527;28;20274;-60
2023/06/02 05:07:40;;;;;;;3.63;1.10;;;;;;;18.16;55.04;99205.13;5039722;28;20760;-62
2023/06/02 05:10:11;;;;;;;13.20;1.40;;;;;;;18.24;55.76;99202.81;5050578;28;20285;-61
2023/06/02 05:12:43;;;;;;;4.87;1.20;;;;;;;18.21;55.70;99208.31;5039323;28;20302;-62
2023/06/02 05:15:14;;;;;;;3.53;1.00;;;;;;;18.11;55.84;99211.53;5048967;28;20379;-62
2023/06/02 05:17:45;;;;;;;2.00;1.07;;;;;;;18.13;55.60;99197.38;5039869;28;20290;-62
2023/06/02 05:20:15;;;;;;;5.57;1.00;;;;;;;18.15;56.94;99156.69;5048684;28;20286;-61
2023/06/02 05:22:46;;;;;;;1.60;1.00;;;;;;;18.75;54.09;99213.56;5039459;28;20278;-63
2023/06/02 05:25:16;;;;;;;2.77;1.17;;;;;;;19.01;54.43;99214.47;5049759;28;20554;-63
2023/06/02 05:27:50;;;;;;;2.40;0.80;;;;;;;19.25;52.75;99206.66;5039030;28;20351;-60
2023/06/02 05:30:23;;;;;;;2.27;1.10;;;;;;;19.18;51.87;99215.97;5048518;28;20282;-60
2023/06/02 05:32:53;;;;;;;1.73;0.93;;;;;;;19.17;52.03;99204.56;5048027;28;20273;-62
2023/06/02 05:35:24;;;;;;;4.80;1.60;;;;;;;19.34;52.50;99205.16;5057891;28;20874;-60
2023/06/02 05:37:54;;;;;;;6.33;1.40;;;;;;;19.62;52.90;99214.69;5047552;28;20373;-63
2023/06/02 05:40:25;;;;;;;4.37;0.90;;;;;;;19.69;51.79;99213.31;5059267;28;20815;-59
2023/06/02 05:42:57;;;;;;;1.20;1.00;;;;;;;19.77;51.96;99211.00;5048472;28;20278;-63
2023/06/02 05:45:27;;;;;;;2.20;0.90;;;;;;;20.05;51.61;99211.66;5058340;28;20827;-60
2023/06/02 05:47:58;;;;;;;1.73;1.10;;;;;;;20.09;50.48;99206.97;5029968;28;20974;-62
2023/06/02 05:50:29;;;;;;;2.50;0.93;;;;;;;20.25;49.49;99197.78;5048917;28;20294;-61
2023/06/02 05:52:59;;;;;;;3.30;1.07;;;;;;;19.80;48.76;99143.66;5052981;28;20286;-60
2023/06/02 05:55:30;;;;;;;3.57;0.90;;;;;;;19.98;49.16;99194.50;5043599;28;21107;-59
2023/06/02 05:58:02;;;;;;;1.80;0.90;;;;;;;19.94;49.82;99182.41;5052727;28;20287;-60
2023/06/02 06:00:34;;;;;;;4.30;0.93;;;;;;;20.03;48.12;99201.16;5034123;28;20282;-58
2023/06/02 06:03:05;;;;;;;5.60;1.10;;;;;;;19.66;49.16;99188.81;5048574;28;20343;-58
2023/06/02 06:05:36;;;;;;;3.00;0.90;;;;;;;19.67;47.99;99191.41;5049433;28;20381;-59
2023/06/02 06:08:06;;;;;;;3.20;0.70;;;;;;;19.56;49.31;99199.22;5062818;28;20289;-59
2023/06/02 06:10:37;;;;;;;4.43;0.90;;;;;;;19.36;48.98;99206.75;5051458;28;20283;-60
2023/06/02 06:13:09;;;;;;;1.13;0.90;;;;;;;19.16;49.68;99196.69;5063347;28;20282;-60
2023/06/02 06:15:40;;;;;;;3.13;0.80;;;;;;;18.79;48.98;99156.00;5051859;28;20324;-60
2023/06/02 06:18:10;;;;;;;3.43;0.80;;;;;;;19.14;49.37;99188.00;5061765;28;20312;-60
2023/06/02 06:20:43;;;;;;;2.43;0.97;;;;;;;19.16;50.17;99159.63;5051821;28;20282;-60
2023/06/02 06:23:15;;;;;;;2.63;0.80;;;;;;;19.66;49.33;99189.66;5062147;28;20818;-62
2023/06/02 06:25:45;;;;;;;1.37;1.00;;;;;;;19.94;48.39;99187.72;5051274;28;20293;-60
2023/06/02 06:28:18;;;;;;;6.57;1.60;;;;;;;20.16;48.86;99187.84;5062610;28;20287;-61
2023/06/02 06:30:49;;;;;;;3.77;0.97;;;;;;;20.24;50.45;99196.13;5049369;28;20342;-60
2023/06/02 06:33:22;;;;;;;3.43;1.30;;;;;;;20.21;50.82;99200.78;5061032;28;20365;-60
2023/06/02 06:35:53;;;;;;;6.47;1.60;;;;;;;20.04;53.00;99207.31;5051403;28;20270;-62
2023/06/02 06:38:23;;;;;;;4.03;1.53;;;;;;;19.83;53.97;99218.50;5061183;28;20340;-60
2023/06/02 06:40:54;;;;;;;3.47;1.50;;;;;;;19.61;54.69;99234.19;5031868;28;20279;-60
2023/06/02 06:43:26;;;;;;;2.40;1.50;;;;;;;19.38;54.73;99239.28;5052820;28;20278;-62
2023/06/02 06:45:57;;;;;;;5.30;1.50;;;;;;;18.58;55.77;99235.00;5028419;28;20290;-60
2023/06/02 06:48:27;;;;;;;6.13;1.93;;;;;;;18.28;58.26;99254.56;5047749;28;20760;-61
2023/06/02 06:50:58;;;;;;;4.63;1.97;;;;;;;18.03;55.55;99258.75;5044024;28;20631;-61
2023/06/02 06:53:29;;;;;;;3.73;1.37;;;;;;;17.93;56.99;99257.66;5058017;28;20310;-59
2023/06/02 06:56:00;;;;;;;4.73;1.73;;;;;;;18.20;59.30;99264.78;5061161;28;20278;-61
2023/06/02 06:58:34;;;;;;;11.90;1.80;;;;;;;18.23;57.51;99276.00;5051608;28;20275;-61
2023/06/02 07:01:04;;;;;;;6.00;1.50;;;;;;;18.16;57.56;99263.28;5061029;28;20365;-61
2023/06/02 07:03:35;;;;;;;8.30;1.20;;;;;;;17.79;55.04;99249.69;5050191;28;20343;-60
2023/06/02 07:06:06;;;;;;;4.53;2.20;;;;;;;17.43;57.59;99243.09;5061255;28;20390;-59
2023/06/02 07:08:38;;;;;;;7.70;5.37;;;;;;;16.88;57.52;99162.81;5050250;28;20294;-60
2023/06/02 07:11:08;;;;;;;7.87;7.17;;;;;;;17.23;57.51;99237.22;5061140;28;20301;-60
2023/06/02 07:13:41;;;;;;;14.03;12.93;;;;;;;17.15;58.38;99244.78;5049566;28;20978;-61
2023/06/02 07:16:11;;;;;;;3.97;1.60;;;;;;;17.00;58.20;99237.78;5061328;28;20355;-59
2023/06/02 07:18:42;;;;;;;2.63;1.53;;;;;;;16.90;59.76;99241.84;5050000;28;20348;-61
2023/06/02 07:21:12;;;;;;;4.20;1.33;;;;;;;16.99;59.41;99243.97;5060554;28;21042;-59
2023/06/02 07:23:43;;;;;;;5.53;1.40;;;;;;;16.96;59.40;99233.59;5049494;28;20559;-61
2023/06/02 07:26:13;;;;;;;7.47;1.47;;;;;;;17.10;59.79;99238.91;5059994;28;20274;-60
2023/06/02 07:28:46;;;;;;;3.70;1.40;;;;;;;17.25;60.12;99235.34;5049708;28;20620;-60
2023/06/02 07:31:17;;;;;;;5.00;1.60;;;;;;;17.33;59.69;99234.03;5060576;28;20951;-61
2023/06/02 07:33:47;;;;;;;6.33;1.67;;;;;;;17.44;60.06;99234.22;5050335;28;20289;-61
2023/06/02 07:36:18;;;;;;;2.57;1.30;;;;;;;17.58;59.93;99236.88;5060945;28;20280;-61
2023/06/02 07:38:49;;;;;;;4.93;1.70;;;;;;;17.58;58.94;99241.31;5048911;28;20639;-61
2023/06/02 07:41:20;;;;;;;6.60;1.67;;;;;;;17.61;59.60;99241.13;5061006;28;20335;-60
2023/06/02 07:43:53;;;;;;;3.87;1.40;;;;;;;17.61;59.89;99236.69;5050746;28;20624;-61
2023/06/02 07:46:23;;;;;;;4.33;1.57;;;;;;;17.72;59.93;99232.53;5061550;28;20658;-61
2023/06/02 07:48:55;;;;;;;5.93;1.47;;;;;;;17.62;59.51;99219.91;5040145;28;20291;-62
2023/06/02 07:51:26;;;;;;;4.07;1.20;;;;;;;17.59;59.18;99230.63;5051058;28;20298;-60
2023/06/02 07:53:57;;;;;;;7.90;2.27;;;;;;;17.59;58.83;99228.00;5040231;28;20298;-60
2023/06/02 07:56:27;;;;;;;4.90;1.30;;;;;;;17.65;59.24;99232.91;5051123;28;20343;-60
2023/06/02 07:59:00;;;;;;;2.20;1.40;;;;;;;17.62;58.59;99230.47;5031385;28;20360;-60
2023/06/02 08:01:30;;;;;;;4.83;1.20;;;;;;;17.55;59.72;99221.22;5041232;28;20294;-60
2023/06/02 08:04:01;;;;;;;4.43;1.50;;;;;;;17.47;58.95;99212.91;5051598;28;20405;-60
2023/06/02 08:06:33;;;;;;;2.07;1.33;;;;;;;17.22;59.35;99209.16;5041638;28;20285;-60
2023/06/02 08:09:04;;;;;;;9.00;2.13;;;;;;;17.13;60.05;99230.81;5051173;28;20286;-60
2023/06/02 08:11:35;;;;;;;3.80;1.40;;;;;;;17.04;59.55;99237.47;5039793;28;20823;-59
2023/06/02 08:14:08;;;;;;;5.37;1.63;;;;;;;16.93;59.97;99228.50;5050910;28;20289;-60
2023/06/02 08:16:38;;;;;;;7.70;1.53;;;;;;;16.84;60.67;99229.03;5040106;28;20329;-60
2023/06/02 08:19:27;;;;;;;3.17;1.60;;;;;;;16.91;61.56;99225.94;5051490;28;20320;-61
2023/06/02 08:22:01;;;;;;;2.93;1.20;;;;;;;16.87;61.66;99223.56;5041186;28;20278;-62
2023/06/02 08:24:36;;;;;;;4.60;1.90;;;;;;;16.80;61.40;99229.22;5048660;28;20316;-62
2023/06/02 08:27:08;;;;;;;2.63;1.60;;;;;;;16.73;61.67;99221.72;5059396;28;20309;-61
2023/06/02 08:29:40;;;;;;;2.03;1.10;;;;;;;16.71;62.21;99224.44;5047994;28;20382;-59
2023/06/02 08:32:11;;;;;;;6.27;1.60;;;;;;;16.76;62.66;99222.38;5056056;28;20343;-61
2023/06/02 08:34:42;;;;;;;8.10;1.50;;;;;;;16.78;62.80;99225.81;5049236;28;20270;-61
2023/06/02 08:37:16;;;;;;;2.30;1.23;;;;;;;16.80;62.52;99228.38;5059680;28;20922;-60
2023/06/02 08:39:47;;;;;;;9.73;1.60;;;;;;;16.48;61.79;99202.06;5049178;28;20296;-61
2023/06/02 08:42:18;;;;;;;10.23;1.87;;;;;;;16.11;62.15;99161.13;5059654;28;20373;-62
2023/06/02 08:44:50;;;;;;;7.30;2.10;;;;;;;16.44;63.01;99231.31;5049192;28;20343;-60
2023/06/02 08:47:27;;;;;;;7.83;2.10;;;;;;;16.59;64.69;99247.09;5059897;28;21143;-61
2023/06/02 08:50:02;;;;;;;14.27;2.17;;;;;;;16.75;64.64;99252.34;5026408;28;20320;-61
2023/06/02 08:52:36;;;;;;;6.27;1.87;;;;;;;16.86;63.58;99248.28;5040052;28;20692;-61
2023/06/02 08:55:07;;;;;;;10.27;1.90;;;;;;;16.84;62.96;99236.97;5050268;28;20326;-60
2023/06/02 08:57:38;;;;;;;3.57;2.10;;;;;;;16.81;62.70;99241.47;5041909;28;20283;-59
2023/06/02 09:00:12;;;;;;;4.53;1.80;;;;;;;16.22;63.17;99142.06;5039717;28;20739;-60
2023/06/02 09:02:48;;;;;;;3.83;1.47;;;;;;;16.74;63.12;99234.81;5021860;28;20307;-60
2023/06/02 09:05:22;;;;;;;7.07;2.13;;;;;;;16.71;63.07;99240.28;5031868;28;20376;-61
2023/06/02 09:08:09;;;;;;;2.87;1.50;;;;;;;16.27;62.50;99167.19;5023680;28;20344;-59
2023/06/02 09:10:45;;;;;;;6.70;2.03;;;;;;;16.48;62.31;99227.56;5031872;28;20712;-60
2023/06/02 09:13:31;;;;;;;10.97;2.47;;;;;;;16.49;62.62;99229.25;5052928;28;20279;-60
2023/06/02 09:16:05;;;;;;;6.80;2.00;;;;;;;15.83;63.33;99146.88;5042973;28;20869;-60
2023/06/02 09:18:37;;;;;;;6.17;2.20;;;;;;;16.31;63.77;99242.56;5041853;28;20712;-60
2023/06/02 09:21:27;;;;;;;5.67;2.10;;;;;;;16.07;64.28;99233.38;5047861;28;20853;-60
2023/06/02 09:24:00;;;;;;;6.70;1.80;;;;;;;15.88;64.40;99234.41;5042545;28;20286;-61
2023/06/02 09:26:50;;;;;;;6.20;1.70;;;;;;;15.68;64.95;99242.50;5042602;28;20287;-62
2023/06/02 09:29:33;;;;;;;9.77;1.83;;;;;;;15.57;65.31;99244.84;5042495;28;20435;-61
2023/06/02 09:32:14;;;;;;;3.10;2.13;;;;;;;14.98;65.45;99179.47;5007214;28;20286;-62
2023/06/02 09:34:45;;;;;;;2.60;1.73;;;;;;;15.31;66.26;99249.69;5048352;28;20362;-61
2023/06/02 09:37:17;;;;;;;3.57;1.70;;;;;;;15.26;66.70;99252.56;5059529;28;20756;-62
2023/06/02 09:39:53;;;;;;;4.67;2.10;;;;;;;15.28;66.83;99228.81;5048766;28;20398;-63
2023/06/02 09:42:24;;;;;;;2.87;1.77;;;;;;;15.19;65.87;99229.28;5056519;28;20294;-63
2023/06/02 09:46:17;;;;;;;6.50;1.73;;;;;;;15.56;65.78;99248.41;5018206;28;20283;-62
2023/06/02 09:49:13;;;;;;;2.67;1.60;;;;;;;15.84;65.26;99248.66;5049421;28;20309;-63
2023/06/02 09:51:47;;;;;;;4.33;1.60;;;;;;;16.05;64.52;99245.78;5038613;28;20290;-63
2023/06/02 09:54:18;;;;;;;5.03;1.93;;;;;;;16.02;63.75;99245.94;5049282;28;20294;-61
2023/06/02 09:56:54;;;;;;;2.50;1.70;;;;;;;15.88;63.57;99260.72;5038785;28;20296;-60
2023/06/02 09:59:26;;;;;;;5.43;1.73;;;;;;;15.80;63.66;99249.78;5049601;28;20294;-61
2023/06/02 10:01:59;;;;;;;2.13;1.23;;;;;;;15.50;62.78;99234.66;5047891;28;20373;-61
2023/06/02 10:04:35;;;;;;;3.20;1.40;;;;;;;15.24;63.16;99219.38;5048775;28;20298;-62
2023/06/02 10:07:28;;;;;;;2.30;1.53;;;;;;;15.17;63.37;99241.66;5045589;28;20279;-59
2023/06/02 10:10:16;;;;;;;2.00;1.20;;;;;;;15.04;63.86;99234.41;5048425;28;20270;-60
2023/06/02 10:13:14;;;;;;;2.57;1.30;;;;;;;14.86;63.99;99232.72;5047304;28;20320;-61
2023/06/02 10:16:00;;;;;;;7.50;1.23;;;;;;;14.76;63.73;99232.31;5047510;28;20286;-61
2023/06/02 10:19:08;;;;;;;1.90;1.13;;;;;;;14.67;63.74;99236.22;5047337;28;20296;-60
2023/06/02 10:21:55;;;;;;;1.90;1.10;;;;;;;14.12;64.55;99188.97;5029347;28;20305;-61
2023/06/02 10:24:37;;;;;;;3.53;1.30;;;;;;;14.32;64.84;99240.56;5058233;28;20048;-62
2023/06/02 10:27:37;;;;;;;2.40;1.60;;;;;;;14.16;65.52;99237.81;5047855;28;20381;-61
2023/06/02 10:30:11;;;;;;;3.37;1.20;;;;;;;14.05;66.19;99234.84;5036212;28;20311;-60
2023/06/02 10:32:48;;;;;;;2.57;1.30;;;;;;;13.94;66.29;99237.13;5038023;28;20286;-61
2023/06/02 10:35:20;;;;;;;2.10;1.20;;;;;;;13.82;66.71;99228.88;5059285;28;20326;-61
2023/06/02 10:38:27;;;;;;;6.27;1.83;;;;;;;13.81;67.33;99248.19;5052095;28;20353;-60
2023/06/02 10:41:01;;;;;;;1.80;1.50;;;;;;;13.45;67.67;99218.34;5032393;28;20321;-61
2023/06/02 10:43:34;;;;;;;3.10;1.73;;;;;;;13.42;68.33;99232.47;5032954;28;20361;-61
2023/06/02 10:46:21;;;;;;;7.55;1.65;;;;;;;13.36;69.10;99245.88;5062228;28;21034;-61
2023/06/02 10:49:09;;;;;;;5.18;1.67;;;;;;;13.11;69.55;99225.91;5049201;28;20040;-63
2023/06/02 10:52:07;;;;;;;3.15;1.60;;;;;;;13.21;69.96;99247.34;4997160;28;20355;-61
2023/06/02 10:55:16;;;;;;;3.25;1.30;;;;;;;13.25;69.64;99248.06;5049741;28;20117;-62
2023/06/02 10:57:55;;;;;;;2.67;1.25;;;;;;;13.29;69.41;99245.28;5034018;28;20038;-60
2023/06/02 11:00:47;;;;;;;2.47;1.58;;;;;;;13.27;68.49;99241.88;5060337;28;20044;-62
2023/06/02 11:03:38;;;;;;;16.00;14.40;;;;;;;13.37;68.25;99253.66;5056847;28;20478;-62
2023/06/02 11:06:26;;;;;;;1.80;1.33;;;;;;;13.55;68.46;99245.88;5031863;28;20551;-61
2023/06/02 11:09:36;;;;;;;2.03;1.30;;;;;;;13.55;66.37;99256.38;5048617;28;20087;-62
2023/06/02 11:12:07;;;;;;;1.95;1.38;;;;;;;13.43;66.88;99243.81;5050121;28;20052;-61
2023/06/02 11:15:24;;;;;;;3.83;1.45;;;;;;;13.45;67.37;99249.84;5034370;28;20056;-61
2023/06/02 11:17:59;;;;;;;6.05;1.58;;;;;;;12.50;68.22;99108.84;5032470;28;22214;-61
2023/06/02 11:20:38;;;;;;;2.75;1.40;;;;;;;12.94;68.56;99171.56;5040811;28;20880;-61
2023/06/02 11:23:12;;;;;;;3.90;1.80;;;;;;;13.03;69.96;99206.16;5051664;28;20040;-61
2023/06/02 11:25:43;;;;;;;5.07;1.73;;;;;;;12.97;72.25;99222.19;5040460;28;20214;-62
2023/06/02 11:28:22;;;;;;;2.42;1.60;;;;;;;12.73;73.01;99219.69;5052314;28;20504;-62
2023/06/02 11:31:07;;;;;;;4.45;1.83;;;;;;;12.61;74.23;99225.44;5040999;28;20059;-63
2023/06/02 11:33:47;;;;;;;3.80;1.75;;;;;;;12.38;75.04;99214.13;5041082;28;20514;-62
2023/06/02 11:36:42;;;;;;;6.72;1.90;;;;;;;12.15;75.77;99201.09;5049642;28;20056;-62
2023/06/02 11:41:58;;;;;;;2.33;1.30;;;;;;;11.93;77.57;99207.19;5032920;28;20580;-60
2023/06/02 11:54:53;;;;;;;4.05;1.40;;;;;;;11.32;79.82;99197.22;5049657;28;20048;-62
2023/06/02 11:57:36;;;;;;;3.40;1.60;;;;;;;11.21;80.12;99187.16;5043769;28;20051;-61
2023/06/02 12:00:16;;;;;;;;;;;;;;;11.09;80.70;99187.59;5032543;28;20441;-61
2023/06/02 12:02:51;;;;;;;;;;;;;;;11.10;81.27;99191.91;5037148;28;20567;-62
2023/06/02 12:05:33;;;;;;;3.13;1.55;;;;;;;11.09;81.16;99177.13;5060528;28;19927;-61
2023/06/02 12:08:20;;;;;;;4.80;1.70;;;;;;;10.99;81.28;99174.00;5050060;28;20048;-61
2023/06/02 12:10:51;;;;;;;2.28;1.70;;;;;;;10.61;81.59;99117.88;5044797;28;20390;-61
2023/06/02 12:13:28;;;;;;;3.17;2.08;;;;;;;10.87;82.18;99160.50;5051107;28;20070;-62
2023/06/02 12:16:15;;;;;;;12.43;6.90;;;;;;;10.85;82.57;99167.53;5031744;28;20500;-62
2023/06/02 12:18:46;;;;;;;5.35;2.33;;;;;;;10.80;82.91;99159.88;5049142;28;20134;-62
2023/06/02 12:21:32;;;;;;;3.65;1.90;;;;;;;10.78;83.20;99162.53;5060020;28;20051;-62